Wind From: 13-12-2017 10:08 Until: 14-12-2017 06:00 warning for: Wind Level: Yellow info button

Although rather usual in this region, locally or potentially dangerous phenomena are expected. (such as local winds, summer thunderstorms, rising streams or high waves) Be aware and pay attention to the latest weather updates, especially if you carry out activities exposed to weather or close to a stream or shoreline. 


Meteo18 Weather Cam more information Meteo18 Weather Cam


Thunder radar more information blitzortung!


Rain radar more information rain snow radar


Visit our other weather sites:

Template documentation
and downloads

And another site



Weather Underground History page Text

Daily Summary for June 11, 2017 Units:  Both    English   Metric
« Previous Day
Next Day »
Daily Weekly Monthly Yearly Custom
  High: Low: Average:
Temperature: 87.8 °F /  31.0 °C 57.4 °F /  14.1 °C 73.9 °F /  23.3 °C
Dew Point: 63.1 °F /  17.3 °C 53.8 °F /  12.1 °C 58.5 °F /  14.7 °C
Humidity: 90 % 35 % 62 %
Wind Speed: 8 mph /  12.9 km/h - 1.6 mph /  2.5 km/h
Wind Gust: 12 mph /  19.3 km/h - -
Wind:- - SW
Pressure: 30.1 in /  1020.5 hPa 30 in /  1016.1 hPa -
Precipitation: 0 in /  0.0 mm    
Historical Graphs
 
 
Tabular Data for June 11, 2017
Time Temperature Dew Point Pressure Wind Wind Speed Wind Gust Humidity Rainfall Rate (Hourly)
00:02 64.2 °F /  17.9 °C 56.1 °F /  13.4 °C 30.1 in /  1020.5 hPa Calm     75 % 0 in /  0.0 mm
00:07 63.9 °F /  17.7 °C 56.1 °F /  13.4 °C 30.1 in /  1020.5 hPa Calm     76 % 0 in /  0.0 mm
00:12 63.7 °F /  17.6 °C 55.9 °F /  13.3 °C 30.1 in /  1020.5 hPa Calm     76 % 0 in /  0.0 mm
00:17 63.5 °F /  17.5 °C 55.8 °F /  13.2 °C 30.1 in /  1020.5 hPa Calm     76 % 0 in /  0.0 mm
00:22 63.3 °F /  17.4 °C 55.6 °F /  13.1 °C 30.1 in /  1020.2 hPa Calm     76 % 0 in /  0.0 mm
00:27 63.3 °F /  17.4 °C 55.6 °F /  13.1 °C 30.1 in /  1020.2 hPa Calm     76 % 0 in /  0.0 mm
00:32 63.1 °F /  17.3 °C 55.4 °F /  13.0 °C 30.1 in /  1020.2 hPa Calm     76 % 0 in /  0.0 mm
00:42 62.8 °F /  17.1 °C 55.4 °F /  13.0 °C 30.1 in /  1020.2 hPa Calm     77 % 0 in /  0.0 mm
00:47 62.8 °F /  17.1 °C 55.8 °F /  13.2 °C 30.1 in /  1020.2 hPa Calm     78 % 0 in /  0.0 mm
00:52 62.4 °F /  16.9 °C 55.4 °F /  13.0 °C 30.1 in /  1019.9 hPa Calm     78 % 0 in /  0.0 mm
00:57 62.4 °F /  16.9 °C 55.4 °F /  13.0 °C 30.1 in /  1019.9 hPa Calm     78 % 0 in /  0.0 mm
01:02 62.4 °F /  16.9 °C 55.4 °F /  13.0 °C 30.1 in /  1019.9 hPa Calm     78 % 0 in /  0.0 mm
01:07 62.2 °F /  16.8 °C 55.6 °F /  13.1 °C 30.1 in /  1019.9 hPa Calm     79 % 0 in /  0.0 mm
01:12 61.9 °F /  16.6 °C 55.6 °F /  13.1 °C 30.1 in /  1019.9 hPa Calm     80 % 0 in /  0.0 mm
01:17 61.5 °F /  16.4 °C 55.2 °F /  12.9 °C 30.1 in /  1019.9 hPa Calm     80 % 0 in /  0.0 mm
01:22 61.5 °F /  16.4 °C 55.2 °F /  12.9 °C 30.1 in /  1019.9 hPa Calm     80 % 0 in /  0.0 mm
01:27 61.5 °F /  16.4 °C 55.2 °F /  12.9 °C 30.1 in /  1019.9 hPa Calm     80 % 0 in /  0.0 mm
01:32 61.3 °F /  16.3 °C 55 °F /  12.8 °C 30.1 in /  1019.9 hPa Calm     80 % 0 in /  0.0 mm
01:37 61.2 °F /  16.2 °C 55.2 °F /  12.9 °C 30.1 in /  1019.9 hPa Calm     81 % 0 in /  0.0 mm
01:42 60.6 °F /  15.9 °C 55.4 °F /  13.0 °C 30.1 in /  1019.9 hPa Calm     83 % 0 in /  0.0 mm
01:47 60.4 °F /  15.8 °C 55.2 °F /  12.9 °C 30.1 in /  1019.9 hPa Calm     83 % 0 in /  0.0 mm
01:52 60.6 °F /  15.9 °C 55.4 °F /  13.0 °C 30.1 in /  1019.9 hPa Calm     83 % 0 in /  0.0 mm
01:57 60.4 °F /  15.8 °C 55.2 °F /  12.9 °C 30.1 in /  1019.9 hPa Calm     83 % 0 in /  0.0 mm
02:02 60.1 °F /  15.6 °C 55.2 °F /  12.9 °C 30.1 in /  1019.9 hPa Calm     84 % 0 in /  0.0 mm
02:07 60.1 °F /  15.6 °C 55.6 °F /  13.1 °C 30.1 in /  1019.5 hPa Calm     85 % 0 in /  0.0 mm
02:12 60.4 °F /  15.8 °C 55.6 °F /  13.1 °C 30.1 in /  1019.9 hPa Calm     84 % 0 in /  0.0 mm
02:17 61 °F /  16.1 °C 55.8 °F /  13.2 °C 30.1 in /  1019.9 hPa Calm     83 % 0 in /  0.0 mm
02:22 60.8 °F /  16.0 °C 55.6 °F /  13.1 °C 30.1 in /  1019.5 hPa Calm     83 % 0 in /  0.0 mm
02:27 60.4 °F /  15.8 °C 55.2 °F /  12.9 °C 30.1 in /  1019.5 hPa Calm     83 % 0 in /  0.0 mm
02:32 60.3 °F /  15.7 °C 55.4 °F /  13.0 °C 30.1 in /  1019.5 hPa Calm     84 % 0 in /  0.0 mm
02:37 60.4 °F /  15.8 °C 55.6 °F /  13.1 °C 30.1 in /  1019.5 hPa Calm     84 % 0 in /  0.0 mm
02:42 60.3 °F /  15.7 °C 55.4 °F /  13.0 °C 30.1 in /  1019.5 hPa Calm     84 % 0 in /  0.0 mm
02:52 59.7 °F /  15.4 °C 55.2 °F /  12.9 °C 30.1 in /  1019.5 hPa Calm     85 % 0 in /  0.0 mm
02:57 59.5 °F /  15.3 °C 55 °F /  12.8 °C 30.1 in /  1019.5 hPa Calm     85 % 0 in /  0.0 mm
03:02 59.5 °F /  15.3 °C 55 °F /  12.8 °C 30.1 in /  1019.5 hPa Calm     85 % 0 in /  0.0 mm
03:07 59.4 °F /  15.2 °C 54.9 °F /  12.7 °C 30.1 in /  1019.5 hPa Calm     85 % 0 in /  0.0 mm
03:12 59.2 °F /  15.1 °C 55 °F /  12.8 °C 30.1 in /  1019.5 hPa Calm     86 % 0 in /  0.0 mm
03:17 59.2 °F /  15.1 °C 55 °F /  12.8 °C 30.1 in /  1019.5 hPa Calm     86 % 0 in /  0.0 mm
03:22 59.2 °F /  15.1 °C 55 °F /  12.8 °C 30.1 in /  1019.5 hPa Calm     86 % 0 in /  0.0 mm
03:27 59.2 °F /  15.1 °C 55 °F /  12.8 °C 30.1 in /  1019.5 hPa Calm     86 % 0 in /  0.0 mm
03:32 59.2 °F /  15.1 °C 55 °F /  12.8 °C 30.1 in /  1019.5 hPa Calm     86 % 0 in /  0.0 mm
03:37 59.4 °F /  15.2 °C 55.2 °F /  12.9 °C 30.1 in /  1019.5 hPa Calm     86 % 0 in /  0.0 mm
03:42 59.2 °F /  15.1 °C 55 °F /  12.8 °C 30.1 in /  1019.5 hPa Calm     86 % 0 in /  0.0 mm
03:47 58.8 °F /  14.9 °C 54.7 °F /  12.6 °C 30.1 in /  1019.5 hPa Calm     86 % 0 in /  0.0 mm
03:52 58.5 °F /  14.7 °C 54.7 °F /  12.6 °C 30.1 in /  1019.5 hPa Calm     87 % 0 in /  0.0 mm
03:57 58.5 °F /  14.7 °C 54.7 °F /  12.6 °C 30.1 in /  1019.5 hPa Calm     87 % 0 in /  0.0 mm
04:02 58.3 °F /  14.6 °C 54.5 °F /  12.5 °C 30.1 in /  1019.5 hPa Calm     87 % 0 in /  0.0 mm
04:07 58.3 °F /  14.6 °C 54.5 °F /  12.5 °C 30.1 in /  1019.5 hPa Calm     87 % 0 in /  0.0 mm
04:12 58.1 °F /  14.5 °C 54.5 °F /  12.5 °C 30.1 in /  1019.5 hPa Calm     88 % 0 in /  0.0 mm
04:17 57.9 °F /  14.4 °C 54.3 °F /  12.4 °C 30.1 in /  1019.5 hPa Calm     88 % 0 in /  0.0 mm
04:22 58.3 °F /  14.6 °C 54.7 °F /  12.6 °C 30.1 in /  1019.5 hPa Calm     88 % 0 in /  0.0 mm
04:27 58.6 °F /  14.8 °C 55 °F /  12.8 °C 30.1 in /  1019.5 hPa Calm     88 % 0 in /  0.0 mm
04:32 58.6 °F /  14.8 °C 54.9 °F /  12.7 °C 30.1 in /  1019.5 hPa Calm     87 % 0 in /  0.0 mm
04:37 58.3 °F /  14.6 °C 54.5 °F /  12.5 °C 30.1 in /  1019.5 hPa Calm     87 % 0 in /  0.0 mm
04:42 57.9 °F /  14.4 °C 54.3 °F /  12.4 °C 30.1 in /  1019.2 hPa Calm     88 % 0 in /  0.0 mm
04:47 57.7 °F /  14.3 °C 54.1 °F /  12.3 °C 30.1 in /  1019.5 hPa Calm     88 % 0 in /  0.0 mm
04:52 57.6 °F /  14.2 °C 54 °F /  12.2 °C 30.1 in /  1019.2 hPa Calm     88 % 0 in /  0.0 mm
04:57 57.6 °F /  14.2 °C 54 °F /  12.2 °C 30.1 in /  1019.2 hPa Calm     88 % 0 in /  0.0 mm
05:02 57.6 °F /  14.2 °C 54 °F /  12.2 °C 30.1 in /  1019.2 hPa Calm     88 % 0 in /  0.0 mm
05:07 57.4 °F /  14.1 °C 53.8 °F /  12.1 °C 30.1 in /  1019.2 hPa Calm     88 % 0 in /  0.0 mm
05:12 57.4 °F /  14.1 °C 54.1 °F /  12.3 °C 30.1 in /  1019.2 hPa Calm     89 % 0 in /  0.0 mm
05:17 57.9 °F /  14.4 °C 54.7 °F /  12.6 °C 30.1 in /  1019.2 hPa NNW 2 mph /  3.2 km/h   89 % 0 in /  0.0 mm
05:22 58.3 °F /  14.6 °C 54.7 °F /  12.6 °C 30.1 in /  1019.2 hPa NNW 1 mph /  1.6 km/h   88 % 0 in /  0.0 mm
05:27 58.3 °F /  14.6 °C 54.5 °F /  12.5 °C 30.1 in /  1019.2 hPa North 1 mph /  1.6 km/h 3 mph /  4.8 km/h 87 % 0 in /  0.0 mm
05:32 58.1 °F /  14.5 °C 54.5 °F /  12.5 °C 30.1 in /  1019.2 hPa North 1 mph /  1.6 km/h 3 mph /  4.8 km/h 88 % 0 in /  0.0 mm
05:37 58.3 °F /  14.6 °C 54.7 °F /  12.6 °C 30.1 in /  1019.2 hPa NNW 1 mph /  1.6 km/h 2 mph /  3.2 km/h 88 % 0 in /  0.0 mm
05:42 58.3 °F /  14.6 °C 54.5 °F /  12.5 °C 30.1 in /  1019.2 hPa Calm   2 mph /  3.2 km/h 87 % 0 in /  0.0 mm
05:52 57.9 °F /  14.4 °C 54.3 °F /  12.4 °C 30.1 in /  1019.2 hPa Calm   2 mph /  3.2 km/h 88 % 0 in /  0.0 mm
05:57 58.1 °F /  14.5 °C 54.5 °F /  12.5 °C 30.1 in /  1019.2 hPa Calm   2 mph /  3.2 km/h 88 % 0 in /  0.0 mm
06:02 58.3 °F /  14.6 °C 54.7 °F /  12.6 °C 30.1 in /  1019.2 hPa Calm   2 mph /  3.2 km/h 88 % 0 in /  0.0 mm
06:12 57.9 °F /  14.4 °C 54.3 °F /  12.4 °C 30.1 in /  1018.8 hPa Calm   1 mph /  1.6 km/h 88 % 0 in /  0.0 mm
06:17 57.9 °F /  14.4 °C 54.3 °F /  12.4 °C 30.1 in /  1018.8 hPa Calm     88 % 0 in /  0.0 mm
06:22 57.9 °F /  14.4 °C 55 °F /  12.8 °C 30.1 in /  1018.8 hPa Calm     90 % 0 in /  0.0 mm
06:27 57.7 °F /  14.3 °C 54.5 °F /  12.5 °C 30.1 in /  1019.2 hPa Calm     89 % 0 in /  0.0 mm
06:32 57.9 °F /  14.4 °C 54.7 °F /  12.6 °C 30.1 in /  1018.8 hPa Calm     89 % 0 in /  0.0 mm
06:42 59.4 °F /  15.2 °C 55.4 °F /  13.0 °C 30.1 in /  1018.8 hPa Calm     87 % 0 in /  0.0 mm
06:52 60.4 °F /  15.8 °C 55.9 °F /  13.3 °C 30.1 in /  1018.8 hPa Calm     85 % 0 in /  0.0 mm
06:57 60.8 °F /  16.0 °C 55.9 °F /  13.3 °C 30.1 in /  1018.8 hPa Calm     84 % 0 in /  0.0 mm
07:02 61.3 °F /  16.3 °C 56.5 °F /  13.6 °C 30.1 in /  1018.8 hPa Calm     84 % 0 in /  0.0 mm
07:12 62.8 °F /  17.1 °C 57.2 °F /  14.0 °C 30.1 in /  1018.8 hPa Calm     82 % 0 in /  0.0 mm
07:17 63.1 °F /  17.3 °C 57.6 °F /  14.2 °C 30.1 in /  1019.2 hPa Calm     82 % 0 in /  0.0 mm
07:22 63.7 °F /  17.6 °C 58.1 °F /  14.5 °C 30.1 in /  1019.2 hPa Calm     82 % 0 in /  0.0 mm
07:27 64.2 °F /  17.9 °C 58.3 °F /  14.6 °C 30.1 in /  1019.2 hPa Calm     81 % 0 in /  0.0 mm
07:42 65.5 °F /  18.6 °C 58.8 °F /  14.9 °C 30.1 in /  1019.2 hPa Calm     79 % 0 in /  0.0 mm
07:47 66.4 °F /  19.1 °C 59.4 °F /  15.2 °C 30.1 in /  1019.2 hPa Calm     78 % 0 in /  0.0 mm
07:52 66.4 °F /  19.1 °C 59 °F /  15.0 °C 30.1 in /  1019.2 hPa Calm     77 % 0 in /  0.0 mm
07:57 66.4 °F /  19.1 °C 59 °F /  15.0 °C 30.1 in /  1019.2 hPa Calm     77 % 0 in /  0.0 mm
08:02 66.6 °F /  19.2 °C 58.1 °F /  14.5 °C 30.1 in /  1019.2 hPa Calm     74 % 0 in /  0.0 mm
08:12 67.3 °F /  19.6 °C 59.9 °F /  15.5 °C 30.1 in /  1019.2 hPa Calm     77 % 0 in /  0.0 mm
08:17 67.5 °F /  19.7 °C 60.1 °F /  15.6 °C 30.1 in /  1019.2 hPa Calm     77 % 0 in /  0.0 mm
08:27 67.8 °F /  19.9 °C 59.2 °F /  15.1 °C 30.1 in /  1019.2 hPa Calm     74 % 0 in /  0.0 mm
08:32 68.5 °F /  20.3 °C 59.9 °F /  15.5 °C 30.1 in /  1019.2 hPa Calm     74 % 0 in /  0.0 mm
08:37 69.3 °F /  20.7 °C 58.6 °F /  14.8 °C 30.1 in /  1018.8 hPa Calm     69 % 0 in /  0.0 mm
08:42 69.8 °F /  21.0 °C 59.2 °F /  15.1 °C 30.1 in /  1018.8 hPa Calm     69 % 0 in /  0.0 mm
08:47 70.5 °F /  21.4 °C 59 °F /  15.0 °C 30.1 in /  1018.8 hPa East 3 mph /  4.8 km/h   67 % 0 in /  0.0 mm
08:52 70.3 °F /  21.3 °C 58.5 °F /  14.7 °C 30.1 in /  1018.8 hPa East 1 mph /  1.6 km/h   66 % 0 in /  0.0 mm
09:02 71.1 °F /  21.7 °C 59.2 °F /  15.1 °C 30.1 in /  1018.8 hPa Calm   3 mph /  4.8 km/h 66 % 0 in /  0.0 mm
09:12 72 °F /  22.2 °C 59.5 °F /  15.3 °C 30.1 in /  1019.2 hPa Calm   3 mph /  4.8 km/h 65 % 0 in /  0.0 mm
09:17 72.1 °F /  22.3 °C 59.4 °F /  15.2 °C 30.1 in /  1018.8 hPa East 1 mph /  1.6 km/h 2 mph /  3.2 km/h 64 % 0 in /  0.0 mm
09:22 72.3 °F /  22.4 °C 60.3 °F /  15.7 °C 30.1 in /  1019.2 hPa East 2 mph /  3.2 km/h 2 mph /  3.2 km/h 66 % 0 in /  0.0 mm
09:27 72.7 °F /  22.6 °C 59.7 °F /  15.4 °C 30.1 in /  1019.2 hPa ENE 1 mph /  1.6 km/h 3 mph /  4.8 km/h 64 % 0 in /  0.0 mm
09:32 73 °F /  22.8 °C 59.7 °F /  15.4 °C 30.1 in /  1018.8 hPa SE 2 mph /  3.2 km/h 3 mph /  4.8 km/h 63 % 0 in /  0.0 mm
09:37 73 °F /  22.8 °C 60.6 °F /  15.9 °C 30.1 in /  1018.8 hPa NE 2 mph /  3.2 km/h 4 mph /  6.4 km/h 65 % 0 in /  0.0 mm
09:42 73.9 °F /  23.3 °C 60.6 °F /  15.9 °C 30.1 in /  1018.8 hPa East 1 mph /  1.6 km/h 4 mph /  6.4 km/h 63 % 0 in /  0.0 mm
09:52 74.5 °F /  23.6 °C 61 °F /  16.1 °C 30.1 in /  1018.8 hPa East 1 mph /  1.6 km/h 5 mph /  8.0 km/h 63 % 0 in /  0.0 mm
09:57 75.4 °F /  24.1 °C 61.5 °F /  16.4 °C 30.1 in /  1018.8 hPa Calm   5 mph /  8.0 km/h 62 % 0 in /  0.0 mm
10:02 75.7 °F /  24.3 °C 60.8 °F /  16.0 °C 30.1 in /  1018.8 hPa ESE 2 mph /  3.2 km/h 5 mph /  8.0 km/h 60 % 0 in /  0.0 mm
10:12 75.7 °F /  24.3 °C 60.8 °F /  16.0 °C 30.1 in /  1018.8 hPa SE 1 mph /  1.6 km/h 4 mph /  6.4 km/h 60 % 0 in /  0.0 mm
10:17 75.7 °F /  24.3 °C 60.4 °F /  15.8 °C 30.1 in /  1018.8 hPa SE 2 mph /  3.2 km/h 4 mph /  6.4 km/h 59 % 0 in /  0.0 mm
10:22 75.7 °F /  24.3 °C 60.4 °F /  15.8 °C 30.1 in /  1018.8 hPa SSE 1 mph /  1.6 km/h 4 mph /  6.4 km/h 59 % 0 in /  0.0 mm
10:27 75.9 °F /  24.4 °C 60.1 °F /  15.6 °C 30.1 in /  1018.8 hPa Calm   3 mph /  4.8 km/h 58 % 0 in /  0.0 mm
10:32 76.8 °F /  24.9 °C 61.9 °F /  16.6 °C 30.1 in /  1018.8 hPa ENE 2 mph /  3.2 km/h 3 mph /  4.8 km/h 60 % 0 in /  0.0 mm
10:37 77.4 °F /  25.2 °C 59.9 °F /  15.5 °C 30.1 in /  1018.8 hPa ENE 2 mph /  3.2 km/h 4 mph /  6.4 km/h 55 % 0 in /  0.0 mm
10:42 77.4 °F /  25.2 °C 60.4 °F /  15.8 °C 30.1 in /  1018.5 hPa East 2 mph /  3.2 km/h 4 mph /  6.4 km/h 56 % 0 in /  0.0 mm
10:47 77.5 °F /  25.3 °C 60.6 °F /  15.9 °C 30.1 in /  1018.5 hPa NE 1 mph /  1.6 km/h 6 mph /  9.7 km/h 56 % 0 in /  0.0 mm
10:52 77.7 °F /  25.4 °C 59.7 °F /  15.4 °C 30.1 in /  1018.5 hPa SSE 2 mph /  3.2 km/h 6 mph /  9.7 km/h 54 % 0 in /  0.0 mm
10:57 78.3 °F /  25.7 °C 60.8 °F /  16.0 °C 30.1 in /  1018.5 hPa SE 3 mph /  4.8 km/h 5 mph /  8.0 km/h 55 % 0 in /  0.0 mm
11:02 78.4 °F /  25.8 °C 60.4 °F /  15.8 °C 30.1 in /  1018.5 hPa Calm   5 mph /  8.0 km/h 54 % 0 in /  0.0 mm
11:07 79 °F /  26.1 °C 60.4 °F /  15.8 °C 30.1 in /  1018.5 hPa Calm   5 mph /  8.0 km/h 53 % 0 in /  0.0 mm
11:12 79.3 °F /  26.3 °C 60.3 °F /  15.7 °C 30.1 in /  1018.5 hPa SSE 1 mph /  1.6 km/h 5 mph /  8.0 km/h 52 % 0 in /  0.0 mm
11:17 79.5 °F /  26.4 °C 61.3 °F /  16.3 °C 30.1 in /  1018.5 hPa East 2 mph /  3.2 km/h 5 mph /  8.0 km/h 54 % 0 in /  0.0 mm
11:22 79.5 °F /  26.4 °C 60.4 °F /  15.8 °C 30.1 in /  1018.5 hPa Calm   5 mph /  8.0 km/h 52 % 0 in /  0.0 mm
11:27 79.5 °F /  26.4 °C 60.4 °F /  15.8 °C 30.1 in /  1018.5 hPa Calm   5 mph /  8.0 km/h 52 % 0 in /  0.0 mm
11:37 80.8 °F /  27.1 °C 59.9 °F /  15.5 °C 30.1 in /  1018.5 hPa East 2 mph /  3.2 km/h 4 mph /  6.4 km/h 49 % 0 in /  0.0 mm
11:42 79.7 °F /  26.5 °C 57.7 °F /  14.3 °C 30.1 in /  1018.5 hPa East 1 mph /  1.6 km/h 4 mph /  6.4 km/h 47 % 0 in /  0.0 mm
11:47 79.9 °F /  26.6 °C 57.9 °F /  14.4 °C 30.1 in /  1018.2 hPa Calm   4 mph /  6.4 km/h 47 % 0 in /  0.0 mm
11:52 80.1 °F /  26.7 °C 58.6 °F /  14.8 °C 30.1 in /  1018.5 hPa Calm   4 mph /  6.4 km/h 48 % 0 in /  0.0 mm
11:57 80.4 °F /  26.9 °C 58.3 °F /  14.6 °C 30.1 in /  1018.5 hPa Calm   4 mph /  6.4 km/h 47 % 0 in /  0.0 mm
12:02 81.3 °F /  27.4 °C 60.3 °F /  15.7 °C 30.1 in /  1018.2 hPa ESE 1 mph /  1.6 km/h 4 mph /  6.4 km/h 49 % 0 in /  0.0 mm
12:07 81.1 °F /  27.3 °C 59 °F /  15.0 °C 30.1 in /  1018.2 hPa ENE 2 mph /  3.2 km/h 4 mph /  6.4 km/h 47 % 0 in /  0.0 mm
12:12 80.4 °F /  26.9 °C 59 °F /  15.0 °C 30.1 in /  1018.2 hPa East 3 mph /  4.8 km/h 5 mph /  8.0 km/h 48 % 0 in /  0.0 mm
12:17 81 °F /  27.2 °C 59.4 °F /  15.2 °C 30.1 in /  1018.2 hPa Calm   5 mph /  8.0 km/h 48 % 0 in /  0.0 mm
12:22 82 °F /  27.8 °C 61 °F /  16.1 °C 30.1 in /  1018.2 hPa Calm   5 mph /  8.0 km/h 49 % 0 in /  0.0 mm
12:27 82 °F /  27.8 °C 58.6 °F /  14.8 °C 30.1 in /  1018.2 hPa SE 4 mph /  6.4 km/h 6 mph /  9.7 km/h 45 % 0 in /  0.0 mm
12:32 81.9 °F /  27.7 °C 57.2 °F /  14.0 °C 30.1 in /  1018.2 hPa ESE 2 mph /  3.2 km/h 6 mph /  9.7 km/h 43 % 0 in /  0.0 mm
12:37 81.7 °F /  27.6 °C 56.3 °F /  13.5 °C 30.1 in /  1018.2 hPa Calm   6 mph /  9.7 km/h 42 % 0 in /  0.0 mm
12:42 82.6 °F /  28.1 °C 58.5 °F /  14.7 °C 30.1 in /  1018.2 hPa East 2 mph /  3.2 km/h 5 mph /  8.0 km/h 44 % 0 in /  0.0 mm
12:47 82.8 °F /  28.2 °C 58.6 °F /  14.8 °C 30.1 in /  1018.2 hPa Calm   4 mph /  6.4 km/h 44 % 0 in /  0.0 mm
12:52 82.9 °F /  28.3 °C 58.8 °F /  14.9 °C 30.1 in /  1018.2 hPa West 2 mph /  3.2 km/h 4 mph /  6.4 km/h 44 % 0 in /  0.0 mm
12:57 82.4 °F /  28.0 °C 58.3 °F /  14.6 °C 30.1 in /  1018.2 hPa SSW 3 mph /  4.8 km/h 4 mph /  6.4 km/h 44 % 0 in /  0.0 mm
13:02 82.8 °F /  28.2 °C 59.2 °F /  15.1 °C 30.1 in /  1017.8 hPa East 2 mph /  3.2 km/h 4 mph /  6.4 km/h 45 % 0 in /  0.0 mm
13:07 82 °F /  27.8 °C 57.9 °F /  14.4 °C 30.1 in /  1017.8 hPa North 1 mph /  1.6 km/h 5 mph /  8.0 km/h 44 % 0 in /  0.0 mm
13:12 82.8 °F /  28.2 °C 59.2 °F /  15.1 °C 30.1 in /  1017.8 hPa East 2 mph /  3.2 km/h 5 mph /  8.0 km/h 45 % 0 in /  0.0 mm
13:17 83.1 °F /  28.4 °C 59 °F /  15.0 °C 30.1 in /  1017.8 hPa SE 1 mph /  1.6 km/h 5 mph /  8.0 km/h 44 % 0 in /  0.0 mm
13:22 83.1 °F /  28.4 °C 60.8 °F /  16.0 °C 30.1 in /  1017.8 hPa SSE 1 mph /  1.6 km/h 3 mph /  4.8 km/h 47 % 0 in /  0.0 mm
13:32 84 °F /  28.9 °C 59.7 °F /  15.4 °C 30.1 in /  1017.8 hPa SE 1 mph /  1.6 km/h 4 mph /  6.4 km/h 44 % 0 in /  0.0 mm
13:37 83.7 °F /  28.7 °C 57.4 °F /  14.1 °C 30.1 in /  1017.8 hPa Calm   8 mph /  12.9 km/h 41 % 0 in /  0.0 mm
13:42 83.5 °F /  28.6 °C 57.4 °F /  14.1 °C 30.1 in /  1017.8 hPa NW 1 mph /  1.6 km/h 8 mph /  12.9 km/h 41 % 0 in /  0.0 mm
13:47 84 °F /  28.9 °C 58.5 °F /  14.7 °C 30.1 in /  1017.8 hPa Calm   8 mph /  12.9 km/h 42 % 0 in /  0.0 mm
13:52 84.9 °F /  29.4 °C 59.9 °F /  15.5 °C 30.1 in /  1017.8 hPa South 4 mph /  6.4 km/h 5 mph /  8.0 km/h 43 % 0 in /  0.0 mm
13:57 85.5 °F /  29.7 °C 58.5 °F /  14.7 °C 30.1 in /  1017.8 hPa SSW 4 mph /  6.4 km/h 5 mph /  8.0 km/h 40 % 0 in /  0.0 mm
14:02 84.9 °F /  29.4 °C 58.6 °F /  14.8 °C 30.1 in /  1017.5 hPa SW 2 mph /  3.2 km/h 6 mph /  9.7 km/h 41 % 0 in /  0.0 mm
14:07 84.9 °F /  29.4 °C 59.2 °F /  15.1 °C 30.1 in /  1017.5 hPa WSW 1 mph /  1.6 km/h 6 mph /  9.7 km/h 42 % 0 in /  0.0 mm
14:12 85.1 °F /  29.5 °C 56.7 °F /  13.7 °C 30.1 in /  1017.5 hPa SSW 8 mph /  12.9 km/h 8 mph /  12.9 km/h 38 % 0 in /  0.0 mm
14:17 84.9 °F /  29.4 °C 57.2 °F /  14.0 °C 30.1 in /  1017.5 hPa SW 4 mph /  6.4 km/h 8 mph /  12.9 km/h 39 % 0 in /  0.0 mm
14:22 84.9 °F /  29.4 °C 55.8 °F /  13.2 °C 30.1 in /  1017.5 hPa SW 8 mph /  12.9 km/h 8 mph /  12.9 km/h 37 % 0 in /  0.0 mm
14:27 84.7 °F /  29.3 °C 58.5 °F /  14.7 °C 30.1 in /  1017.5 hPa SSW 4 mph /  6.4 km/h 8 mph /  12.9 km/h 41 % 0 in /  0.0 mm
14:32 84.9 °F /  29.4 °C 57.2 °F /  14.0 °C 30.1 in /  1017.5 hPa WSW 4 mph /  6.4 km/h 8 mph /  12.9 km/h 39 % 0 in /  0.0 mm
14:37 85.1 °F /  29.5 °C 57.4 °F /  14.1 °C 30 in /  1017.2 hPa ESE 2 mph /  3.2 km/h 8 mph /  12.9 km/h 39 % 0 in /  0.0 mm
14:42 85.5 °F /  29.7 °C 57.7 °F /  14.3 °C 30 in /  1017.2 hPa West 2 mph /  3.2 km/h 6 mph /  9.7 km/h 39 % 0 in /  0.0 mm
14:47 85.6 °F /  29.8 °C 55.6 °F /  13.1 °C 30 in /  1017.2 hPa SW 3 mph /  4.8 km/h 8 mph /  12.9 km/h 36 % 0 in /  0.0 mm
14:52 85.6 °F /  29.8 °C 57.2 °F /  14.0 °C 30 in /  1017.2 hPa West 3 mph /  4.8 km/h 8 mph /  12.9 km/h 38 % 0 in /  0.0 mm
14:57 85.8 °F /  29.9 °C 57.2 °F /  14.0 °C 30 in /  1017.2 hPa SW 2 mph /  3.2 km/h 7 mph /  11.3 km/h 38 % 0 in /  0.0 mm
15:02 86.2 °F /  30.1 °C 57.6 °F /  14.2 °C 30 in /  1017.2 hPa SSW 8 mph /  12.9 km/h 8 mph /  12.9 km/h 38 % 0 in /  0.0 mm
15:07 86.7 °F /  30.4 °C 58.8 °F /  14.9 °C 30 in /  1017.2 hPa SW 3 mph /  4.8 km/h 11 mph /  17.7 km/h 39 % 0 in /  0.0 mm
15:12 86.7 °F /  30.4 °C 55.8 °F /  13.2 °C 30 in /  1017.2 hPa SSW 5 mph /  8.0 km/h 11 mph /  17.7 km/h 35 % 0 in /  0.0 mm
15:17 86.4 °F /  30.2 °C 57 °F /  13.9 °C 30 in /  1017.2 hPa SSW 6 mph /  9.7 km/h 10 mph /  16.1 km/h 37 % 0 in /  0.0 mm
15:22 85.8 °F /  29.9 °C 55 °F /  12.8 °C 30 in /  1017.2 hPa SW 8 mph /  12.9 km/h 10 mph /  16.1 km/h 35 % 0 in /  0.0 mm
15:27 85.6 °F /  29.8 °C 55.6 °F /  13.1 °C 30 in /  1017.2 hPa West 4 mph /  6.4 km/h 10 mph /  16.1 km/h 36 % 0 in /  0.0 mm
15:32 86.2 °F /  30.1 °C 55.4 °F /  13.0 °C 30 in /  1017.2 hPa SSW 4 mph /  6.4 km/h 10 mph /  16.1 km/h 35 % 0 in /  0.0 mm
15:37 85.8 °F /  29.9 °C 55.8 °F /  13.2 °C 30 in /  1017.2 hPa WSW 7 mph /  11.3 km/h 10 mph /  16.1 km/h 36 % 0 in /  0.0 mm
15:42 85.8 °F /  29.9 °C 57.2 °F /  14.0 °C 30 in /  1017.2 hPa NNW 1 mph /  1.6 km/h 9 mph /  14.5 km/h 38 % 0 in /  0.0 mm
15:47 86.2 °F /  30.1 °C 56.8 °F /  13.8 °C 30 in /  1017.2 hPa WSW 3 mph /  4.8 km/h 9 mph /  14.5 km/h 37 % 0 in /  0.0 mm
15:52 85.8 °F /  29.9 °C 57.9 °F /  14.4 °C 30 in /  1017.2 hPa WNW 2 mph /  3.2 km/h 11 mph /  17.7 km/h 39 % 0 in /  0.0 mm
15:57 85.8 °F /  29.9 °C 57.2 °F /  14.0 °C 30 in /  1017.2 hPa WNW 3 mph /  4.8 km/h 11 mph /  17.7 km/h 38 % 0 in /  0.0 mm
16:02 85.8 °F /  29.9 °C 57.9 °F /  14.4 °C 30 in /  1017.2 hPa WNW 6 mph /  9.7 km/h 11 mph /  17.7 km/h 39 % 0 in /  0.0 mm
16:12 85.6 °F /  29.8 °C 57.9 °F /  14.4 °C 30 in /  1017.2 hPa WSW 4 mph /  6.4 km/h 9 mph /  14.5 km/h 39 % 0 in /  0.0 mm
16:17 86.5 °F /  30.3 °C 57.9 °F /  14.4 °C 30 in /  1017.2 hPa SW 5 mph /  8.0 km/h 9 mph /  14.5 km/h 38 % 0 in /  0.0 mm
16:22 86.2 °F /  30.1 °C 57.6 °F /  14.2 °C 30 in /  1017.2 hPa West 5 mph /  8.0 km/h 8 mph /  12.9 km/h 38 % 0 in /  0.0 mm
16:27 85.5 °F /  29.7 °C 58.5 °F /  14.7 °C 30 in /  1017.2 hPa WNW 3 mph /  4.8 km/h 8 mph /  12.9 km/h 40 % 0 in /  0.0 mm
16:32 85.6 °F /  29.8 °C 59.2 °F /  15.1 °C 30 in /  1017.2 hPa West 2 mph /  3.2 km/h 7 mph /  11.3 km/h 41 % 0 in /  0.0 mm
16:37 85.8 °F /  29.9 °C 57.9 °F /  14.4 °C 30 in /  1017.2 hPa SW 1 mph /  1.6 km/h 7 mph /  11.3 km/h 39 % 0 in /  0.0 mm
16:42 86.4 °F /  30.2 °C 58.5 °F /  14.7 °C 30 in /  1016.8 hPa WSW 4 mph /  6.4 km/h 7 mph /  11.3 km/h 39 % 0 in /  0.0 mm
16:47 86.4 °F /  30.2 °C 58.5 °F /  14.7 °C 30 in /  1016.8 hPa SSE 1 mph /  1.6 km/h 7 mph /  11.3 km/h 39 % 0 in /  0.0 mm
16:52 87.1 °F /  30.6 °C 59.9 °F /  15.5 °C 30 in /  1016.8 hPa West 1 mph /  1.6 km/h 6 mph /  9.7 km/h 40 % 0 in /  0.0 mm
16:57 86.5 °F /  30.3 °C 59.4 °F /  15.2 °C 30 in /  1016.8 hPa SW 6 mph /  9.7 km/h 6 mph /  9.7 km/h 40 % 0 in /  0.0 mm
17:02 86 °F /  30.0 °C 58.8 °F /  14.9 °C 30 in /  1016.8 hPa WSW 5 mph /  8.0 km/h 7 mph /  11.3 km/h 40 % 0 in /  0.0 mm
17:07 86.2 °F /  30.1 °C 59.7 °F /  15.4 °C 30 in /  1016.8 hPa WSW 5 mph /  8.0 km/h 7 mph /  11.3 km/h 41 % 0 in /  0.0 mm
17:12 86 °F /  30.0 °C 59.5 °F /  15.3 °C 30 in /  1016.8 hPa WNW 5 mph /  8.0 km/h 8 mph /  12.9 km/h 41 % 0 in /  0.0 mm
17:17 85.8 °F /  29.9 °C 59.4 °F /  15.2 °C 30 in /  1016.8 hPa North 3 mph /  4.8 km/h 8 mph /  12.9 km/h 41 % 0 in /  0.0 mm
17:22 86.4 °F /  30.2 °C 60.6 °F /  15.9 °C 30 in /  1016.8 hPa NW 3 mph /  4.8 km/h 8 mph /  12.9 km/h 42 % 0 in /  0.0 mm
17:27 86.5 °F /  30.3 °C 59.4 °F /  15.2 °C 30 in /  1016.8 hPa WNW 4 mph /  6.4 km/h 8 mph /  12.9 km/h 40 % 0 in /  0.0 mm
17:32 86.2 °F /  30.1 °C 59 °F /  15.0 °C 30 in /  1016.8 hPa WNW 3 mph /  4.8 km/h 8 mph /  12.9 km/h 40 % 0 in /  0.0 mm
17:42 87.1 °F /  30.6 °C 60.4 °F /  15.8 °C 30 in /  1016.5 hPa WNW 2 mph /  3.2 km/h 9 mph /  14.5 km/h 41 % 0 in /  0.0 mm
17:47 86.7 °F /  30.4 °C 59.5 °F /  15.3 °C 30 in /  1016.5 hPa NNE 1 mph /  1.6 km/h 7 mph /  11.3 km/h 40 % 0 in /  0.0 mm
17:52 86.7 °F /  30.4 °C 59.5 °F /  15.3 °C 30 in /  1016.5 hPa WSW 1 mph /  1.6 km/h 7 mph /  11.3 km/h 40 % 0 in /  0.0 mm
17:57 86.5 °F /  30.3 °C 59.4 °F /  15.2 °C 30 in /  1016.5 hPa SW 3 mph /  4.8 km/h 7 mph /  11.3 km/h 40 % 0 in /  0.0 mm
18:02 86.5 °F /  30.3 °C 60.8 °F /  16.0 °C 30 in /  1016.1 hPa WNW 3 mph /  4.8 km/h 7 mph /  11.3 km/h 42 % 0 in /  0.0 mm
18:07 86.7 °F /  30.4 °C 61.5 °F /  16.4 °C 30 in /  1016.5 hPa WSW 3 mph /  4.8 km/h 7 mph /  11.3 km/h 43 % 0 in /  0.0 mm
18:12 86.7 °F /  30.4 °C 60.3 °F /  15.7 °C 30 in /  1016.5 hPa WNW 3 mph /  4.8 km/h 7 mph /  11.3 km/h 41 % 0 in /  0.0 mm
18:17 86.7 °F /  30.4 °C 60.3 °F /  15.7 °C 30 in /  1016.5 hPa WNW 2 mph /  3.2 km/h 6 mph /  9.7 km/h 41 % 0 in /  0.0 mm
18:22 86.4 °F /  30.2 °C 60.6 °F /  15.9 °C 30 in /  1016.1 hPa WSW 3 mph /  4.8 km/h 6 mph /  9.7 km/h 42 % 0 in /  0.0 mm
18:27 86.5 °F /  30.3 °C 60.8 °F /  16.0 °C 30 in /  1016.1 hPa West 1 mph /  1.6 km/h 7 mph /  11.3 km/h 42 % 0 in /  0.0 mm
18:32 87.3 °F /  30.7 °C 60.6 °F /  15.9 °C 30 in /  1016.1 hPa Calm   7 mph /  11.3 km/h 41 % 0 in /  0.0 mm
18:37 87.8 °F /  31.0 °C 61.2 °F /  16.2 °C 30 in /  1016.1 hPa WNW 4 mph /  6.4 km/h 4 mph /  6.4 km/h 41 % 0 in /  0.0 mm
18:42 87.3 °F /  30.7 °C 61.3 °F /  16.3 °C 30 in /  1016.1 hPa WNW 4 mph /  6.4 km/h 5 mph /  8.0 km/h 42 % 0 in /  0.0 mm
18:47 86.7 °F /  30.4 °C 61.5 °F /  16.4 °C 30 in /  1016.1 hPa WNW 7 mph /  11.3 km/h 11 mph /  17.7 km/h 43 % 0 in /  0.0 mm
18:52 86.4 °F /  30.2 °C 61.9 °F /  16.6 °C 30 in /  1016.1 hPa WNW 8 mph /  12.9 km/h 11 mph /  17.7 km/h 44 % 0 in /  0.0 mm
18:57 86.4 °F /  30.2 °C 63.1 °F /  17.3 °C 30 in /  1016.1 hPa WNW 6 mph /  9.7 km/h 11 mph /  17.7 km/h 46 % 0 in /  0.0 mm
19:02 86.5 °F /  30.3 °C 62.6 °F /  17.0 °C 30 in /  1016.1 hPa West 3 mph /  4.8 km/h 9 mph /  14.5 km/h 45 % 0 in /  0.0 mm
19:12 85.8 °F /  29.9 °C 62.6 °F /  17.0 °C 30 in /  1016.1 hPa WSW 5 mph /  8.0 km/h 8 mph /  12.9 km/h 46 % 0 in /  0.0 mm
19:17 85.8 °F /  29.9 °C 62.6 °F /  17.0 °C 30 in /  1016.1 hPa WNW 4 mph /  6.4 km/h 9 mph /  14.5 km/h 46 % 0 in /  0.0 mm
19:22 85.6 °F /  29.8 °C 62.4 °F /  16.9 °C 30 in /  1016.1 hPa West 3 mph /  4.8 km/h 9 mph /  14.5 km/h 46 % 0 in /  0.0 mm
19:27 85.5 °F /  29.7 °C 62.2 °F /  16.8 °C 30 in /  1016.1 hPa West 4 mph /  6.4 km/h 9 mph /  14.5 km/h 46 % 0 in /  0.0 mm
19:32 85.3 °F /  29.6 °C 62.2 °F /  16.8 °C 30 in /  1016.1 hPa West 5 mph /  8.0 km/h 9 mph /  14.5 km/h 46 % 0 in /  0.0 mm
19:37 85.3 °F /  29.6 °C 62.8 °F /  17.1 °C 30 in /  1016.5 hPa WNW 5 mph /  8.0 km/h 10 mph /  16.1 km/h 47 % 0 in /  0.0 mm
19:42 84.9 °F /  29.4 °C 63 °F /  17.2 °C 30 in /  1016.5 hPa WNW 1 mph /  1.6 km/h 10 mph /  16.1 km/h 48 % 0 in /  0.0 mm
19:47 84.6 °F /  29.2 °C 62.8 °F /  17.1 °C 30 in /  1016.5 hPa NNW 3 mph /  4.8 km/h 10 mph /  16.1 km/h 48 % 0 in /  0.0 mm
19:52 84.2 °F /  29.0 °C 62.4 °F /  16.9 °C 30 in /  1016.5 hPa WNW 5 mph /  8.0 km/h 11 mph /  17.7 km/h 48 % 0 in /  0.0 mm
19:57 84 °F /  28.9 °C 62.8 °F /  17.1 °C 30 in /  1016.5 hPa WNW 5 mph /  8.0 km/h 11 mph /  17.7 km/h 49 % 0 in /  0.0 mm
20:02 83.8 °F /  28.8 °C 63.1 °F /  17.3 °C 30 in /  1016.5 hPa NW 2 mph /  3.2 km/h 11 mph /  17.7 km/h 50 % 0 in /  0.0 mm
20:12 83.7 °F /  28.7 °C 62.4 °F /  16.9 °C 30 in /  1016.5 hPa WNW 3 mph /  4.8 km/h 10 mph /  16.1 km/h 49 % 0 in /  0.0 mm
20:17 83.5 °F /  28.6 °C 62.2 °F /  16.8 °C 30 in /  1016.5 hPa West 3 mph /  4.8 km/h 8 mph /  12.9 km/h 49 % 0 in /  0.0 mm
20:22 83.5 °F /  28.6 °C 62.2 °F /  16.8 °C 30 in /  1016.5 hPa West 3 mph /  4.8 km/h 8 mph /  12.9 km/h 49 % 0 in /  0.0 mm
20:27 83.1 °F /  28.4 °C 62.6 °F /  17.0 °C 30 in /  1016.8 hPa WNW 5 mph /  8.0 km/h 8 mph /  12.9 km/h 50 % 0 in /  0.0 mm
20:32 82.8 °F /  28.2 °C 61.7 °F /  16.5 °C 30 in /  1016.8 hPa West 6 mph /  9.7 km/h 10 mph /  16.1 km/h 49 % 0 in /  0.0 mm
20:37 82.6 °F /  28.1 °C 62.1 °F /  16.7 °C 30 in /  1016.8 hPa WNW 5 mph /  8.0 km/h 12 mph /  19.3 km/h 50 % 0 in /  0.0 mm
20:42 82 °F /  27.8 °C 62.1 °F /  16.7 °C 30 in /  1016.8 hPa WNW 7 mph /  11.3 km/h 12 mph /  19.3 km/h 51 % 0 in /  0.0 mm
20:52 81.1 °F /  27.3 °C 61.9 °F /  16.6 °C 30 in /  1016.8 hPa WNW 1 mph /  1.6 km/h 10 mph /  16.1 km/h 52 % 0 in /  0.0 mm
20:57 80.8 °F /  27.1 °C 62.1 °F /  16.7 °C 30 in /  1016.8 hPa WNW 3 mph /  4.8 km/h 9 mph /  14.5 km/h 53 % 0 in /  0.0 mm
21:02 80.4 °F /  26.9 °C 61.7 °F /  16.5 °C 30 in /  1016.8 hPa WNW 4 mph /  6.4 km/h 7 mph /  11.3 km/h 53 % 0 in /  0.0 mm
21:07 80.1 °F /  26.7 °C 61.9 °F /  16.6 °C 30 in /  1017.2 hPa NNW 3 mph /  4.8 km/h 7 mph /  11.3 km/h 54 % 0 in /  0.0 mm
21:12 79.5 °F /  26.4 °C 61.9 °F /  16.6 °C 30 in /  1016.8 hPa West 2 mph /  3.2 km/h 6 mph /  9.7 km/h 55 % 0 in /  0.0 mm
21:17 79.2 °F /  26.2 °C 62.1 °F /  16.7 °C 30 in /  1016.8 hPa WNW 3 mph /  4.8 km/h 6 mph /  9.7 km/h 56 % 0 in /  0.0 mm
21:22 78.6 °F /  25.9 °C 61.5 °F /  16.4 °C 30 in /  1016.8 hPa WNW 1 mph /  1.6 km/h 5 mph /  8.0 km/h 56 % 0 in /  0.0 mm
21:32 78.3 °F /  25.7 °C 61.7 °F /  16.5 °C 30 in /  1016.8 hPa Calm   3 mph /  4.8 km/h 57 % 0 in /  0.0 mm
21:37 77.9 °F /  25.5 °C 61.9 °F /  16.6 °C 30 in /  1016.8 hPa Calm   3 mph /  4.8 km/h 58 % 0 in /  0.0 mm
21:42 77.2 °F /  25.1 °C 62.2 °F /  16.8 °C 30 in /  1016.8 hPa Calm     60 % 0 in /  0.0 mm
21:47 76.5 °F /  24.7 °C 62.1 °F /  16.7 °C 30 in /  1016.8 hPa WNW 2 mph /  3.2 km/h 2 mph /  3.2 km/h 61 % 0 in /  0.0 mm
21:52 76.3 °F /  24.6 °C 61.9 °F /  16.6 °C 30 in /  1016.8 hPa Calm   2 mph /  3.2 km/h 61 % 0 in /  0.0 mm
21:57 75.9 °F /  24.4 °C 61.9 °F /  16.6 °C 30 in /  1016.8 hPa Calm   2 mph /  3.2 km/h 62 % 0 in /  0.0 mm
22:02 75.6 °F /  24.2 °C 62.1 °F /  16.7 °C 30 in /  1017.2 hPa Calm   2 mph /  3.2 km/h 63 % 0 in /  0.0 mm
22:12 74.8 °F /  23.8 °C 62.2 °F /  16.8 °C 30 in /  1017.2 hPa Calm     65 % 0 in /  0.0 mm
22:17 74.1 °F /  23.4 °C 62.1 °F /  16.7 °C 30 in /  1017.2 hPa Calm     66 % 0 in /  0.0 mm
22:22 73.8 °F /  23.2 °C 62.1 °F /  16.7 °C 30 in /  1017.2 hPa Calm     67 % 0 in /  0.0 mm
22:27 73.4 °F /  23.0 °C 62.2 °F /  16.8 °C 30.1 in /  1017.5 hPa Calm     68 % 0 in /  0.0 mm
22:32 73 °F /  22.8 °C 62.2 °F /  16.8 °C 30.1 in /  1017.5 hPa Calm     69 % 0 in /  0.0 mm
22:42 72.7 °F /  22.6 °C 62.2 °F /  16.8 °C 30.1 in /  1017.5 hPa West 1 mph /  1.6 km/h 2 mph /  3.2 km/h 70 % 0 in /  0.0 mm
22:52 72.1 °F /  22.3 °C 62.2 °F /  16.8 °C 30.1 in /  1017.8 hPa Calm   2 mph /  3.2 km/h 71 % 0 in /  0.0 mm
22:57 72.1 °F /  22.3 °C 62.2 °F /  16.8 °C 30.1 in /  1017.8 hPa Calm   2 mph /  3.2 km/h 71 % 0 in /  0.0 mm
23:02 72.1 °F /  22.3 °C 62.2 °F /  16.8 °C 30.1 in /  1017.8 hPa Calm   2 mph /  3.2 km/h 71 % 0 in /  0.0 mm
23:07 72.1 °F /  22.3 °C 62.2 °F /  16.8 °C 30.1 in /  1017.8 hPa Calm   2 mph /  3.2 km/h 71 % 0 in /  0.0 mm
23:12 72.1 °F /  22.3 °C 62.6 °F /  17.0 °C 30.1 in /  1017.8 hPa Calm   2 mph /  3.2 km/h 72 % 0 in /  0.0 mm
23:17 72 °F /  22.2 °C 62.4 °F /  16.9 °C 30.1 in /  1017.8 hPa Calm   1 mph /  1.6 km/h 72 % 0 in /  0.0 mm
23:22 72 °F /  22.2 °C 62.4 °F /  16.9 °C 30.1 in /  1017.8 hPa WNW 2 mph /  3.2 km/h   72 % 0 in /  0.0 mm
23:27 72.9 °F /  22.7 °C 62.4 °F /  16.9 °C 30.1 in /  1017.8 hPa Calm   3 mph /  4.8 km/h 70 % 0 in /  0.0 mm
23:32 73.2 °F /  22.9 °C 62.4 °F /  16.9 °C 30.1 in /  1017.8 hPa WNW 1 mph /  1.6 km/h 3 mph /  4.8 km/h 69 % 0 in /  0.0 mm
23:37 73.6 °F /  23.1 °C 62.4 °F /  16.9 °C 30.1 in /  1017.8 hPa WNW 1 mph /  1.6 km/h 4 mph /  6.4 km/h 68 % 0 in /  0.0 mm
23:42 73.8 °F /  23.2 °C 62.6 °F /  17.0 °C 30.1 in /  1017.8 hPa West 1 mph /  1.6 km/h 5 mph /  8.0 km/h 68 % 0 in /  0.0 mm
23:47 73.8 °F /  23.2 °C 62.6 °F /  17.0 °C 30.1 in /  1018.2 hPa WNW 3 mph /  4.8 km/h 5 mph /  8.0 km/h 68 % 0 in /  0.0 mm
23:52 73.8 °F /  23.2 °C 63 °F /  17.2 °C 30.1 in /  1017.8 hPa NNW 2 mph /  3.2 km/h 5 mph /  8.0 km/h 69 % 0 in /  0.0 mm
23:57 73.8 °F /  23.2 °C 63 °F /  17.2 °C 30.1 in /  1018.2 hPa NNW 1 mph /  1.6 km/h 7 mph /  11.3 km/h 69 % 0 in /  0.0 mm
Meteo18
Compliments of Weather Underground - 4 mb

Script developed by  Jim McMurry - jmcmurry@mwt.net Adapted for the template by  Wim van der Kuil - Leuven-Template.eu

You find our weather info also at:

European Weather Network

Weather Underground

Equipment we use:

Weather-station
Davis Vue

Weather-program
Meteohub

Weather-server
Raspberry PI 2 B+

Provider
1 and 1

Davis Vue

Meteohub

Raspberry PI 2 B+

1 and 1